sensor_id;sensor_type;location;lat;lon;timestamp;pressure;altitude;pressure_sealevel;temperature;humidity
43757;BME280;73222;41.866;12.462;2023-10-19T00:01:31;100464.34;;;19.36;100.00
43757;BME280;73222;41.866;12.462;2023-10-19T00:03:59;100470.06;;;19.49;100.00
43757;BME280;73222;41.866;12.462;2023-10-19T00:06:24;100475.88;;;19.57;100.00
43757;BME280;73222;41.866;12.462;2023-10-19T00:08:53;100479.16;;;19.62;100.00
43757;BME280;73222;41.866;12.462;2023-10-19T00:11:20;100483.88;;;19.78;100.00
43757;BME280;73222;41.866;12.462;2023-10-19T00:13:51;100480.31;;;19.79;100.00
43757;BME280;73222;41.866;12.462;2023-10-19T00:16:24;100483.53;;;19.87;100.00
43757;BME280;73222;41.866;12.462;2023-10-19T00:19:01;100499.78;;;19.99;100.00
43757;BME280;73222;41.866;12.462;2023-10-19T00:21:37;100508.88;;;19.88;100.00
43757;BME280;73222;41.866;12.462;2023-10-19T00:24:36;100535.66;;;20.00;100.00
43757;BME280;73222;41.866;12.462;2023-10-19T00:27:02;100535.09;;;20.15;100.00
43757;BME280;73222;41.866;12.462;2023-10-19T00:29:43;100525.50;;;20.14;100.00
43757;BME280;73222;41.866;12.462;2023-10-19T00:32:15;100507.19;;;20.11;100.00
43757;BME280;73222;41.866;12.462;2023-10-19T00:34:43;100511.94;;;20.25;100.00
43757;BME280;73222;41.866;12.462;2023-10-19T00:37:20;100538.44;;;20.19;100.00
43757;BME280;73222;41.866;12.462;2023-10-19T00:39:53;100564.66;;;20.21;100.00
43757;BME280;73222;41.866;12.462;2023-10-19T00:42:23;100579.72;;;20.17;100.00
43757;BME280;73222;41.866;12.462;2023-10-19T00:47:26;100528.53;;;19.27;100.00
43757;BME280;73222;41.866;12.462;2023-10-19T00:50:21;100491.78;;;19.27;100.00
43757;BME280;73222;41.866;12.462;2023-10-19T00:53:20;100535.00;;;19.17;100.00
43757;BME280;73222;41.866;12.462;2023-10-19T00:55:48;100508.84;;;19.14;100.00
43757;BME280;73222;41.866;12.462;2023-10-19T00:58:44;100509.16;;;19.04;100.00
43757;BME280;73222;41.866;12.462;2023-10-19T01:01:23;100489.19;;;19.00;100.00
43757;BME280;73222;41.866;12.462;2023-10-19T01:15:17;100441.88;;;19.29;100.00
43757;BME280;73222;41.866;12.462;2023-10-19T01:17:48;100435.59;;;19.33;100.00
43757;BME280;73222;41.866;12.462;2023-10-19T01:20:21;100423.19;;;19.38;100.00
43757;BME280;73222;41.866;12.462;2023-10-19T01:23:13;100426.28;;;19.24;100.00
43757;BME280;73222;41.866;12.462;2023-10-19T01:25:56;100429.03;;;19.21;100.00
43757;BME280;73222;41.866;12.462;2023-10-19T01:28:33;100421.56;;;19.34;100.00
43757;BME280;73222;41.866;12.462;2023-10-19T01:31:17;100417.97;;;19.36;100.00
43757;BME280;73222;41.866;12.462;2023-10-19T01:34:01;100424.25;;;19.32;100.00
43757;BME280;73222;41.866;12.462;2023-10-19T01:36:32;100417.53;;;19.25;100.00
43757;BME280;73222;41.866;12.462;2023-10-19T01:39:11;100420.94;;;19.27;100.00
43757;BME280;73222;41.866;12.462;2023-10-19T01:41:44;100421.34;;;19.15;100.00
43757;BME280;73222;41.866;12.462;2023-10-19T01:44:10;100422.44;;;19.09;100.00
43757;BME280;73222;41.866;12.462;2023-10-19T01:46:41;100434.75;;;19.07;100.00
43757;BME280;73222;41.866;12.462;2023-10-19T01:49:09;100423.50;;;19.03;100.00
43757;BME280;73222;41.866;12.462;2023-10-19T01:51:36;100416.56;;;19.02;100.00
43757;BME280;73222;41.866;12.462;2023-10-19T01:54:04;100415.69;;;19.02;100.00
43757;BME280;73222;41.866;12.462;2023-10-19T01:56:34;100395.75;;;18.96;100.00
43757;BME280;73222;41.866;12.462;2023-10-19T01:59:07;100387.91;;;18.94;100.00
43757;BME280;73222;41.866;12.462;2023-10-19T02:01:34;100381.94;;;18.91;100.00
43757;BME280;73222;41.866;12.462;2023-10-19T02:04:05;100390.72;;;18.90;100.00
43757;BME280;73222;41.866;12.462;2023-10-19T02:06:33;100380.22;;;18.90;100.00
43757;BME280;73222;41.866;12.462;2023-10-19T02:09:09;100374.97;;;18.90;100.00
43757;BME280;73222;41.866;12.462;2023-10-19T02:11:49;100374.38;;;18.81;100.00
43757;BME280;73222;41.866;12.462;2023-10-19T02:14:16;100382.44;;;18.75;100.00
43757;BME280;73222;41.866;12.462;2023-10-19T02:16:46;100401.84;;;18.71;100.00
43757;BME280;73222;41.866;12.462;2023-10-19T02:19:20;100410.69;;;18.67;100.00
43757;BME280;73222;41.866;12.462;2023-10-19T02:21:55;100404.63;;;18.66;100.00
43757;BME280;73222;41.866;12.462;2023-10-19T02:24:21;100394.28;;;18.62;100.00
43757;BME280;73222;41.866;12.462;2023-10-19T02:26:49;100388.31;;;18.57;100.00
43757;BME280;73222;41.866;12.462;2023-10-19T02:29:17;100395.28;;;18.58;100.00
43757;BME280;73222;41.866;12.462;2023-10-19T02:31:47;100386.50;;;18.59;100.00
43757;BME280;73222;41.866;12.462;2023-10-19T02:34:13;100401.03;;;18.69;100.00
43757;BME280;73222;41.866;12.462;2023-10-19T02:36:45;100415.25;;;18.62;100.00
43757;BME280;73222;41.866;12.462;2023-10-19T02:39:14;100405.44;;;18.67;100.00
43757;BME280;73222;41.866;12.462;2023-10-19T02:41:41;100365.88;;;19.00;100.00
43757;BME280;73222;41.866;12.462;2023-10-19T02:44:18;100361.72;;;19.20;100.00
43757;BME280;73222;41.866;12.462;2023-10-19T02:46:46;100344.25;;;19.19;100.00
43757;BME280;73222;41.866;12.462;2023-10-19T02:49:14;100341.72;;;19.16;100.00
43757;BME280;73222;41.866;12.462;2023-10-19T02:51:48;100341.91;;;19.11;100.00
43757;BME280;73222;41.866;12.462;2023-10-19T02:54:19;100342.56;;;19.18;100.00
43757;BME280;73222;41.866;12.462;2023-10-19T02:56:47;100332.84;;;19.44;100.00
43757;BME280;73222;41.866;12.462;2023-10-19T02:59:16;100343.00;;;19.53;100.00
43757;BME280;73222;41.866;12.462;2023-10-19T03:01:49;100329.31;;;19.67;100.00
43757;BME280;73222;41.866;12.462;2023-10-19T03:04:16;100327.44;;;19.71;100.00
43757;BME280;73222;41.866;12.462;2023-10-19T03:06:42;100309.56;;;19.81;100.00
43757;BME280;73222;41.866;12.462;2023-10-19T03:09:10;100305.59;;;19.93;100.00
43757;BME280;73222;41.866;12.462;2023-10-19T03:11:40;100295.50;;;20.04;100.00
43757;BME280;73222;41.866;12.462;2023-10-19T03:14:08;100286.84;;;20.02;100.00
43757;BME280;73222;41.866;12.462;2023-10-19T03:16:38;100281.22;;;20.11;100.00
43757;BME280;73222;41.866;12.462;2023-10-19T03:19:07;100268.25;;;20.29;100.00
43757;BME280;73222;41.866;12.462;2023-10-19T03:21:34;100275.31;;;20.27;100.00
43757;BME280;73222;41.866;12.462;2023-10-19T03:24:12;100275.56;;;20.21;100.00
43757;BME280;73222;41.866;12.462;2023-10-19T03:26:40;100271.50;;;20.34;100.00
43757;BME280;73222;41.866;12.462;2023-10-19T03:29:16;100285.00;;;20.26;100.00
43757;BME280;73222;41.866;12.462;2023-10-19T03:32:02;100299.88;;;20.26;100.00
43757;BME280;73222;41.866;12.462;2023-10-19T03:34:28;100294.38;;;20.32;100.00
43757;BME280;73222;41.866;12.462;2023-10-19T03:36:58;100293.00;;;20.44;100.00
43757;BME280;73222;41.866;12.462;2023-10-19T03:39:33;100278.78;;;20.48;100.00
43757;BME280;73222;41.866;12.462;2023-10-19T03:42:00;100288.88;;;20.38;100.00
43757;BME280;73222;41.866;12.462;2023-10-19T03:44:27;100287.03;;;20.40;100.00
43757;BME280;73222;41.866;12.462;2023-10-19T03:47:04;100273.63;;;20.47;100.00
43757;BME280;73222;41.866;12.462;2023-10-19T03:49:31;100252.59;;;20.47;100.00
43757;BME280;73222;41.866;12.462;2023-10-19T03:52:02;100247.03;;;20.53;100.00
43757;BME280;73222;41.866;12.462;2023-10-19T03:54:37;100246.34;;;20.49;100.00
43757;BME280;73222;41.866;12.462;2023-10-19T03:57:06;100257.38;;;20.57;100.00
43757;BME280;73222;41.866;12.462;2023-10-19T03:59:41;100260.34;;;20.50;100.00
43757;BME280;73222;41.866;12.462;2023-10-19T04:02:10;100240.53;;;20.62;100.00
43757;BME280;73222;41.866;12.462;2023-10-19T04:04:40;100226.56;;;20.61;100.00
43757;BME280;73222;41.866;12.462;2023-10-19T04:07:10;100236.91;;;20.64;100.00
43757;BME280;73222;41.866;12.462;2023-10-19T04:09:52;100238.06;;;20.58;100.00
43757;BME280;73222;41.866;12.462;2023-10-19T04:12:36;100238.09;;;20.57;100.00
43757;BME280;73222;41.866;12.462;2023-10-19T04:15:05;100229.19;;;20.61;100.00
43757;BME280;73222;41.866;12.462;2023-10-19T04:17:46;100223.53;;;20.50;100.00
43757;BME280;73222;41.866;12.462;2023-10-19T04:20:17;100213.00;;;20.50;100.00
43757;BME280;73222;41.866;12.462;2023-10-19T04:22:50;100214.00;;;20.47;100.00
43757;BME280;73222;41.866;12.462;2023-10-19T04:25:20;100216.94;;;20.60;100.00
43757;BME280;73222;41.866;12.462;2023-10-19T04:27:56;100216.44;;;20.71;100.00
43757;BME280;73222;41.866;12.462;2023-10-19T04:30:22;100213.50;;;20.79;100.00
43757;BME280;73222;41.866;12.462;2023-10-19T04:32:49;100218.38;;;20.67;100.00
43757;BME280;73222;41.866;12.462;2023-10-19T04:35:16;100207.22;;;20.62;100.00
43757;BME280;73222;41.866;12.462;2023-10-19T04:37:52;100211.59;;;20.62;100.00
43757;BME280;73222;41.866;12.462;2023-10-19T04:40:22;100212.75;;;20.56;100.00
43757;BME280;73222;41.866;12.462;2023-10-19T04:42:52;100213.91;;;20.69;100.00
43757;BME280;73222;41.866;12.462;2023-10-19T04:45:21;100197.72;;;20.79;100.00
43757;BME280;73222;41.866;12.462;2023-10-19T04:47:51;100198.47;;;20.81;100.00
43757;BME280;73222;41.866;12.462;2023-10-19T04:50:23;100210.16;;;20.75;100.00
43757;BME280;73222;41.866;12.462;2023-10-19T04:52:48;100203.50;;;20.87;100.00
43757;BME280;73222;41.866;12.462;2023-10-19T04:55:14;100202.97;;;20.79;100.00
43757;BME280;73222;41.866;12.462;2023-10-19T04:57:40;100182.09;;;20.95;100.00
43757;BME280;73222;41.866;12.462;2023-10-19T05:00:07;100198.31;;;20.85;100.00
43757;BME280;73222;41.866;12.462;2023-10-19T05:02:39;100198.16;;;20.89;100.00
43757;BME280;73222;41.866;12.462;2023-10-19T05:05:05;100197.81;;;20.76;100.00
43757;BME280;73222;41.866;12.462;2023-10-19T05:07:31;100197.31;;;20.88;100.00
43757;BME280;73222;41.866;12.462;2023-10-19T05:10:05;100198.84;;;20.92;100.00
43757;BME280;73222;41.866;12.462;2023-10-19T05:12:41;100196.88;;;20.97;100.00
43757;BME280;73222;41.866;12.462;2023-10-19T05:15:10;100186.41;;;20.96;100.00
43757;BME280;73222;41.866;12.462;2023-10-19T05:17:37;100197.66;;;20.99;100.00
43757;BME280;73222;41.866;12.462;2023-10-19T05:20:07;100189.63;;;21.03;100.00
43757;BME280;73222;41.866;12.462;2023-10-19T05:22:34;100194.53;;;20.91;100.00
43757;BME280;73222;41.866;12.462;2023-10-19T05:25:01;100204.63;;;21.00;100.00
43757;BME280;73222;41.866;12.462;2023-10-19T05:27:27;100194.53;;;20.91;100.00
43757;BME280;73222;41.866;12.462;2023-10-19T05:29:52;100191.13;;;20.89;100.00
43757;BME280;73222;41.866;12.462;2023-10-19T05:32:19;100202.00;;;21.00;100.00
43757;BME280;73222;41.866;12.462;2023-10-19T05:34:48;100200.28;;;20.99;100.00
43757;BME280;73222;41.866;12.462;2023-10-19T05:37:20;100195.81;;;21.02;100.00
43757;BME280;73222;41.866;12.462;2023-10-19T05:39:46;100189.31;;;21.09;100.00
43757;BME280;73222;41.866;12.462;2023-10-19T05:42:13;100191.06;;;21.10;100.00
43757;BME280;73222;41.866;12.462;2023-10-19T05:44:40;100190.75;;;21.16;100.00
43757;BME280;73222;41.866;12.462;2023-10-19T05:47:09;100200.28;;;21.19;100.00
43757;BME280;73222;41.866;12.462;2023-10-19T05:49:35;100192.16;;;21.23;100.00
43757;BME280;73222;41.866;12.462;2023-10-19T05:52:02;100196.66;;;21.21;100.00
43757;BME280;73222;41.866;12.462;2023-10-19T05:54:28;100200.16;;;21.22;100.00
43757;BME280;73222;41.866;12.462;2023-10-19T05:56:54;100193.56;;;21.31;100.00
43757;BME280;73222;41.866;12.462;2023-10-19T05:59:20;100214.19;;;21.40;100.00
43757;BME280;73222;41.866;12.462;2023-10-19T06:01:50;100195.94;;;21.54;100.00
43757;BME280;73222;41.866;12.462;2023-10-19T06:04:18;100201.06;;;21.58;100.00
43757;BME280;73222;41.866;12.462;2023-10-19T06:06:44;100181.38;;;21.65;100.00
43757;BME280;73222;41.866;12.462;2023-10-19T06:09:10;100219.00;;;21.68;100.00
43757;BME280;73222;41.866;12.462;2023-10-19T06:11:36;100210.97;;;21.72;100.00
43757;BME280;73222;41.866;12.462;2023-10-19T06:14:08;100205.88;;;21.67;100.00
43757;BME280;73222;41.866;12.462;2023-10-19T06:16:36;100203.00;;;21.91;100.00
43757;BME280;73222;41.866;12.462;2023-10-19T06:19:02;100221.41;;;21.73;100.00
43757;BME280;73222;41.866;12.462;2023-10-19T06:21:28;100209.31;;;21.69;100.00
43757;BME280;73222;41.866;12.462;2023-10-19T06:23:55;100202.09;;;22.26;100.00
43757;BME280;73222;41.866;12.462;2023-10-19T06:26:24;100220.63;;;21.89;100.00
43757;BME280;73222;41.866;12.462;2023-10-19T06:28:50;100206.41;;;21.93;100.00
43757;BME280;73222;41.866;12.462;2023-10-19T06:31:17;100217.81;;;22.45;100.00
43757;BME280;73222;41.866;12.462;2023-10-19T06:33:44;100196.56;;;22.48;100.00
43757;BME280;73222;41.866;12.462;2023-10-19T06:36:10;100236.16;;;22.13;100.00
43757;BME280;73222;41.866;12.462;2023-10-19T06:38:35;100219.38;;;22.49;100.00
43757;BME280;73222;41.866;12.462;2023-10-19T06:41:13;100219.41;;;22.99;100.00
43757;BME280;73222;41.866;12.462;2023-10-19T06:43:39;100213.34;;;23.45;100.00
43757;BME280;73222;41.866;12.462;2023-10-19T06:46:07;100211.72;;;23.58;100.00
43757;BME280;73222;41.866;12.462;2023-10-19T06:48:33;100193.16;;;24.36;100.00
43757;BME280;73222;41.866;12.462;2023-10-19T06:51:01;100211.28;;;24.27;100.00
43757;BME280;73222;41.866;12.462;2023-10-19T06:53:28;100204.28;;;24.55;100.00
43757;BME280;73222;41.866;12.462;2023-10-19T06:55:56;100200.72;;;24.86;100.00
43757;BME280;73222;41.866;12.462;2023-10-19T06:58:22;100206.66;;;24.31;100.00
43757;BME280;73222;41.866;12.462;2023-10-19T07:00:53;100213.75;;;24.60;100.00
43757;BME280;73222;41.866;12.462;2023-10-19T07:03:22;100222.44;;;24.62;100.00
43757;BME280;73222;41.866;12.462;2023-10-19T07:05:51;100204.44;;;25.10;100.00
43757;BME280;73222;41.866;12.462;2023-10-19T07:08:18;100211.69;;;24.79;100.00
43757;BME280;73222;41.866;12.462;2023-10-19T07:10:47;100216.28;;;24.32;100.00
43757;BME280;73222;41.866;12.462;2023-10-19T07:13:16;100223.22;;;24.64;100.00
43757;BME280;73222;41.866;12.462;2023-10-19T07:15:45;100210.88;;;25.21;100.00
43757;BME280;73222;41.866;12.462;2023-10-19T07:18:12;100221.72;;;24.89;100.00
43757;BME280;73222;41.866;12.462;2023-10-19T07:20:40;100228.38;;;25.51;100.00
43757;BME280;73222;41.866;12.462;2023-10-19T07:23:08;100225.56;;;26.98;100.00
43757;BME280;73222;41.866;12.462;2023-10-19T07:25:54;100239.22;;;26.01;100.00
43757;BME280;73222;41.866;12.462;2023-10-19T07:28:23;100237.22;;;26.18;100.00
43757;BME280;73222;41.866;12.462;2023-10-19T07:30:52;100233.59;;;26.06;100.00
43757;BME280;73222;41.866;12.462;2023-10-19T07:33:21;100244.47;;;26.55;100.00
43757;BME280;73222;41.866;12.462;2023-10-19T07:35:53;100253.25;;;25.21;100.00
43757;BME280;73222;41.866;12.462;2023-10-19T07:38:25;100278.06;;;24.91;100.00
43757;BME280;73222;41.866;12.462;2023-10-19T07:40:51;100258.94;;;25.57;100.00
43757;BME280;73222;41.866;12.462;2023-10-19T07:43:25;100272.38;;;24.97;100.00
43757;BME280;73222;41.866;12.462;2023-10-19T07:45:50;100255.75;;;25.51;100.00
43757;BME280;73222;41.866;12.462;2023-10-19T07:48:17;100268.50;;;26.00;100.00
43757;BME280;73222;41.866;12.462;2023-10-19T07:50:43;100270.53;;;25.69;100.00
43757;BME280;73222;41.866;12.462;2023-10-19T07:53:09;100257.88;;;25.59;100.00
43757;BME280;73222;41.866;12.462;2023-10-19T07:55:35;100253.75;;;25.96;100.00
43757;BME280;73222;41.866;12.462;2023-10-19T07:58:05;100258.19;;;24.98;100.00
43757;BME280;73222;41.866;12.462;2023-10-19T08:00:32;100235.88;;;26.25;100.00
43757;BME280;73222;41.866;12.462;2023-10-19T08:03:01;100234.41;;;27.23;100.00
43757;BME280;73222;41.866;12.462;2023-10-19T08:05:28;100257.41;;;26.72;100.00
43757;BME280;73222;41.866;12.462;2023-10-19T08:07:54;100243.38;;;27.71;100.00
43757;BME280;73222;41.866;12.462;2023-10-19T08:10:20;100239.31;;;27.41;100.00
43757;BME280;73222;41.866;12.462;2023-10-19T08:12:47;100241.91;;;26.79;100.00
43757;BME280;73222;41.866;12.462;2023-10-19T08:15:14;100255.75;;;26.32;100.00
43757;BME280;73222;41.866;12.462;2023-10-19T08:17:42;100239.41;;;26.39;100.00
43757;BME280;73222;41.866;12.462;2023-10-19T08:20:12;100244.94;;;26.08;100.00
43757;BME280;73222;41.866;12.462;2023-10-19T08:22:42;100254.63;;;25.41;100.00
43757;BME280;73222;41.866;12.462;2023-10-19T08:25:12;100274.44;;;25.63;100.00
43757;BME280;73222;41.866;12.462;2023-10-19T08:27:47;100248.59;;;26.98;100.00
43757;BME280;73222;41.866;12.462;2023-10-19T08:30:21;100253.38;;;26.67;100.00
43757;BME280;73222;41.866;12.462;2023-10-19T08:32:47;100245.16;;;27.95;100.00
43757;BME280;73222;41.866;12.462;2023-10-19T08:35:18;100245.41;;;28.15;100.00
43757;BME280;73222;41.866;12.462;2023-10-19T08:37:46;100258.91;;;26.90;100.00
43757;BME280;73222;41.866;12.462;2023-10-19T08:40:13;100256.69;;;25.78;100.00
43757;BME280;73222;41.866;12.462;2023-10-19T08:42:44;100263.28;;;25.16;100.00
43757;BME280;73222;41.866;12.462;2023-10-19T08:45:16;100255.78;;;25.22;100.00
43757;BME280;73222;41.866;12.462;2023-10-19T08:47:53;100250.56;;;26.03;100.00
43757;BME280;73222;41.866;12.462;2023-10-19T08:50:32;100246.38;;;25.46;100.00
43757;BME280;73222;41.866;12.462;2023-10-19T08:53:00;100245.97;;;25.10;100.00
43757;BME280;73222;41.866;12.462;2023-10-19T08:55:29;100259.31;;;25.08;100.00
43757;BME280;73222;41.866;12.462;2023-10-19T08:57:57;100253.19;;;25.35;100.00
43757;BME280;73222;41.866;12.462;2023-10-19T09:00:26;100258.19;;;24.98;100.00
43757;BME280;73222;41.866;12.462;2023-10-19T09:02:53;100253.25;;;25.06;100.00
43757;BME280;73222;41.866;12.462;2023-10-19T09:05:22;100247.00;;;25.07;100.00
43757;BME280;73222;41.866;12.462;2023-10-19T09:07:56;100248.78;;;25.63;100.00
43757;BME280;73222;41.866;12.462;2023-10-19T09:10:22;100247.47;;;25.56;100.00
43757;BME280;73222;41.866;12.462;2023-10-19T09:13:04;100256.38;;;25.55;100.00
43757;BME280;73222;41.866;12.462;2023-10-19T09:15:36;100241.97;;;25.59;100.00
43757;BME280;73222;41.866;12.462;2023-10-19T09:18:17;100239.44;;;25.58;100.00
43757;BME280;73222;41.866;12.462;2023-10-19T09:20:46;100237.09;;;25.53;100.00
43757;BME280;73222;41.866;12.462;2023-10-19T09:23:24;100237.53;;;26.00;100.00
43757;BME280;73222;41.866;12.462;2023-10-19T09:25:52;100244.97;;;24.98;100.00
43757;BME280;73222;41.866;12.462;2023-10-19T09:28:26;100248.91;;;25.05;100.00
43757;BME280;73222;41.866;12.462;2023-10-19T09:30:53;100235.09;;;25.97;100.00
43757;BME280;73222;41.866;12.462;2023-10-19T09:33:23;100227.25;;;26.99;100.00
43757;BME280;73222;41.866;12.462;2023-10-19T09:35:50;100244.22;;;26.19;100.00
43757;BME280;73222;41.866;12.462;2023-10-19T09:38:22;100230.84;;;26.08;100.00
43757;BME280;73222;41.866;12.462;2023-10-19T09:40:52;100227.25;;;26.99;100.00
43757;BME280;73222;41.866;12.462;2023-10-19T09:46:08;100196.34;;;27.72;100.00
43757;BME280;73222;41.866;12.462;2023-10-19T09:48:47;100211.75;;;27.91;100.00
43757;BME280;73222;41.866;12.462;2023-10-19T09:51:18;100196.13;;;27.50;100.00
43757;BME280;73222;41.866;12.462;2023-10-19T09:53:49;100208.78;;;27.47;100.00
43757;BME280;73222;41.866;12.462;2023-10-19T09:56:38;100179.00;;;27.54;100.00
43757;BME280;73222;41.866;12.462;2023-10-19T09:59:13;100189.03;;;28.09;100.00
43757;BME280;73222;41.866;12.462;2023-10-19T10:04:33;100195.03;;;28.70;100.00
43757;BME280;73222;41.866;12.462;2023-10-19T10:07:01;100167.72;;;27.51;100.00
43757;BME280;73222;41.866;12.462;2023-10-19T10:09:36;100185.50;;;28.90;100.00
43757;BME280;73222;41.866;12.462;2023-10-19T10:17:25;100145.63;;;28.77;100.00
43757;BME280;73222;41.866;12.462;2023-10-19T10:19:55;100144.47;;;30.11;100.00
43757;BME280;73222;41.866;12.462;2023-10-19T10:22:22;100150.19;;;29.85;100.00
43757;BME280;73222;41.866;12.462;2023-10-19T10:24:54;100146.88;;;29.50;100.00
43757;BME280;73222;41.866;12.462;2023-10-19T10:27:22;100149.50;;;26.97;100.00
43757;BME280;73222;41.866;12.462;2023-10-19T10:30:00;100134.06;;;28.44;100.00
43757;BME280;73222;41.866;12.462;2023-10-19T10:32:51;100137.06;;;29.18;100.00
43757;BME280;73222;41.866;12.462;2023-10-19T10:38:09;100125.97;;;30.19;100.00
43757;BME280;73222;41.866;12.462;2023-10-19T10:40:44;100117.91;;;28.80;100.00
43757;BME280;73222;41.866;12.462;2023-10-19T10:43:13;100121.75;;;29.31;100.00
43757;BME280;73222;41.866;12.462;2023-10-19T10:45:39;100113.28;;;29.26;100.00
43757;BME280;73222;41.866;12.462;2023-10-19T10:48:18;100111.66;;;28.13;100.00
43757;BME280;73222;41.866;12.462;2023-10-19T10:50:47;100102.69;;;28.71;100.00
43757;BME280;73222;41.866;12.462;2023-10-19T10:53:15;100103.88;;;27.75;100.00
43757;BME280;73222;41.866;12.462;2023-10-19T10:55:41;100102.84;;;27.53;100.00
43757;BME280;73222;41.866;12.462;2023-10-19T10:58:08;100124.69;;;27.93;100.00
43757;BME280;73222;41.866;12.462;2023-10-19T11:00:42;100114.47;;;29.33;100.00
43757;BME280;73222;41.866;12.462;2023-10-19T11:03:08;100110.78;;;29.67;100.00
43757;BME280;73222;41.866;12.462;2023-10-19T11:05:36;100122.38;;;27.41;100.00
43757;BME280;73222;41.866;12.462;2023-10-19T11:08:14;100106.53;;;28.89;100.00
43757;BME280;73222;41.866;12.462;2023-10-19T11:10:45;100085.59;;;33.56;100.00
43757;BME280;73222;41.866;12.462;2023-10-19T11:13:22;100079.22;;;30.86;100.00
43757;BME280;73222;41.866;12.462;2023-10-19T11:15:56;100094.13;;;32.79;100.00
43757;BME280;73222;41.866;12.462;2023-10-19T11:20:55;100077.75;;;32.36;100.00
43757;BME280;73222;41.866;12.462;2023-10-19T11:23:42;100065.53;;;34.38;100.00
43757;BME280;73222;41.866;12.462;2023-10-19T11:26:18;100075.41;;;28.34;100.00
43757;BME280;73222;41.866;12.462;2023-10-19T11:28:44;100062.34;;;28.75;100.00
43757;BME280;73222;41.866;12.462;2023-10-19T11:31:23;100098.56;;;27.04;100.00
43757;BME280;73222;41.866;12.462;2023-10-19T11:33:52;100069.34;;;27.04;100.00
43757;BME280;73222;41.866;12.462;2023-10-19T11:36:21;100072.94;;;26.54;100.00
43757;BME280;73222;41.866;12.462;2023-10-19T11:38:52;100078.53;;;26.99;100.00
43757;BME280;73222;41.866;12.462;2023-10-19T11:41:18;100056.44;;;27.46;100.00
43757;BME280;73222;41.866;12.462;2023-10-19T11:43:46;100074.03;;;26.38;100.00
43757;BME280;73222;41.866;12.462;2023-10-19T11:46:12;100047.34;;;26.90;100.00
43757;BME280;73222;41.866;12.462;2023-10-19T11:48:40;100048.00;;;30.76;100.00
43757;BME280;73222;41.866;12.462;2023-10-19T11:51:08;100030.91;;;28.02;100.00
43757;BME280;73222;41.866;12.462;2023-10-19T11:53:38;100057.03;;;27.02;100.00
43757;BME280;73222;41.866;12.462;2023-10-19T11:56:10;100053.66;;;27.00;100.00
43757;BME280;73222;41.866;12.462;2023-10-19T11:58:39;100046.47;;;26.28;100.00
43757;BME280;73222;41.866;12.462;2023-10-19T12:01:09;100039.97;;;27.77;100.00
43757;BME280;73222;41.866;12.462;2023-10-19T12:03:40;100044.25;;;27.08;100.00
43757;BME280;73222;41.866;12.462;2023-10-19T12:06:10;100075.94;;;26.36;100.00
43757;BME280;73222;41.866;12.462;2023-10-19T12:08:49;100058.78;;;26.91;100.00
43757;BME280;73222;41.866;12.462;2023-10-19T12:11:15;100053.66;;;26.63;100.00
43757;BME280;73222;41.866;12.462;2023-10-19T12:13:41;100041.78;;;30.66;100.00
43757;BME280;73222;41.866;12.462;2023-10-19T12:16:13;100045.16;;;28.24;100.00
43757;BME280;73222;41.866;12.462;2023-10-19T12:18:45;100043.41;;;30.27;100.00
43757;BME280;73222;41.866;12.462;2023-10-19T12:21:14;100053.03;;;30.99;100.00
43757;BME280;73222;41.866;12.462;2023-10-19T12:23:42;100066.94;;;27.36;100.00
43757;BME280;73222;41.866;12.462;2023-10-19T12:26:11;100051.66;;;32.66;100.00
43757;BME280;73222;41.866;12.462;2023-10-19T12:28:41;100049.03;;;31.62;100.00
43757;BME280;73222;41.866;12.462;2023-10-19T12:31:12;100036.00;;;31.87;100.00
43757;BME280;73222;41.866;12.462;2023-10-19T12:33:38;100051.25;;;31.87;100.00
43757;BME280;73222;41.866;12.462;2023-10-19T12:36:05;100040.84;;;33.39;100.00
43757;BME280;73222;41.866;12.462;2023-10-19T12:38:50;100077.03;;;31.68;100.00
43757;BME280;73222;41.866;12.462;2023-10-19T12:41:20;100029.41;;;28.88;100.00
43757;BME280;73222;41.866;12.462;2023-10-19T12:43:47;100040.41;;;29.37;100.00
43757;BME280;73222;41.866;12.462;2023-10-19T12:46:13;100050.88;;;30.63;100.00
43757;BME280;73222;41.866;12.462;2023-10-19T12:48:44;100043.47;;;31.06;100.00
43757;BME280;73222;41.866;12.462;2023-10-19T12:51:09;100052.69;;;32.37;100.00
43757;BME280;73222;41.866;12.462;2023-10-19T12:53:38;100066.97;;;32.00;100.00
43757;BME280;73222;41.866;12.462;2023-10-19T12:56:04;100052.31;;;29.12;100.00
43757;BME280;73222;41.866;12.462;2023-10-19T12:58:32;100050.81;;;31.04;100.00
43757;BME280;73222;41.866;12.462;2023-10-19T13:00:58;100035.56;;;30.36;100.00
43757;BME280;73222;41.866;12.462;2023-10-19T13:03:26;100049.66;;;32.86;100.00
43757;BME280;73222;41.866;12.462;2023-10-19T13:05:54;100058.28;;;31.78;100.00
43757;BME280;73222;41.866;12.462;2023-10-19T13:08:22;100038.72;;;30.90;100.00
